createdAt,value
2023-01-18T00:00:33.495Z,2.23
2023-01-18T00:03:02.777Z,2.70
2023-01-18T00:05:31.200Z,2.73
2023-01-18T00:07:59.092Z,2.80
2023-01-18T00:10:27.196Z,2.67
2023-01-18T00:12:55.371Z,2.80
2023-01-18T00:15:23.545Z,2.80
2023-01-18T00:17:52.580Z,2.80
2023-01-18T00:20:23.995Z,2.70
2023-01-18T00:22:52.484Z,2.70
2023-01-18T00:25:21.568Z,2.30
2023-01-18T00:27:51.209Z,2.70
2023-01-18T00:30:22.391Z,2.93
2023-01-18T00:32:53.294Z,2.83
2023-01-18T00:35:22.562Z,2.80
2023-01-18T00:37:51.537Z,2.40
2023-01-18T00:40:20.133Z,2.93
2023-01-18T00:43:05.448Z,2.97
2023-01-18T00:45:33.471Z,2.80
2023-01-18T00:48:02.733Z,2.80
2023-01-18T00:50:32.087Z,2.53
2023-01-18T00:53:00.575Z,2.83
2023-01-18T00:55:28.577Z,2.97
2023-01-18T00:57:56.588Z,2.70
2023-01-18T01:00:26.853Z,2.37
2023-01-18T01:02:54.991Z,2.80
2023-01-18T01:05:43.228Z,2.57
2023-01-18T01:08:16.900Z,2.73
2023-01-18T01:10:46.305Z,2.93
2023-01-18T01:13:32.124Z,2.80
2023-01-18T01:16:22.152Z,2.60
2023-01-18T01:19:07.366Z,2.97
2023-01-18T01:21:53.087Z,2.57
2023-01-18T01:24:39.797Z,2.80
2023-01-18T01:27:07.998Z,2.50
2023-01-18T01:29:35.889Z,2.73
2023-01-18T01:32:04.011Z,2.87
2023-01-18T01:34:32.002Z,2.73
2023-01-18T01:36:59.878Z,2.43
2023-01-18T01:39:29.150Z,2.67
2023-01-18T01:41:57.007Z,2.70
2023-01-18T01:44:48.111Z,2.70
2023-01-18T01:47:33.655Z,2.63
2023-01-18T01:50:08.831Z,2.70
2023-01-18T01:52:39.056Z,2.23
2023-01-18T01:55:13.100Z,2.47
2023-01-18T01:57:45.621Z,2.30
2023-01-18T02:00:16.399Z,2.40
2023-01-18T02:02:48.082Z,2.63
2023-01-18T02:05:18.112Z,2.43
2023-01-18T02:07:46.665Z,2.50
2023-01-18T02:10:16.592Z,2.23
2023-01-18T02:12:48.048Z,2.80
2023-01-18T02:15:18.568Z,2.57
2023-01-18T02:18:08.009Z,3.23
2023-01-18T02:20:56.295Z,2.60
2023-01-18T02:23:34.984Z,2.67
2023-01-18T02:26:33.975Z,2.50
2023-01-18T02:29:13.291Z,2.70
2023-01-18T02:31:50.832Z,2.50
2023-01-18T02:34:28.763Z,2.43
2023-01-18T02:37:05.215Z,2.40
2023-01-18T02:39:42.285Z,2.23
2023-01-18T02:42:36.424Z,2.87
2023-01-18T02:45:28.158Z,2.73
2023-01-18T02:48:02.983Z,2.87
2023-01-18T02:50:31.140Z,2.63
2023-01-18T02:52:59.342Z,2.67
2023-01-18T02:55:37.290Z,2.33
2023-01-18T02:58:10.198Z,2.23
2023-01-18T03:00:46.069Z,2.40
2023-01-18T03:03:15.994Z,2.30
2023-01-18T03:05:47.213Z,2.00
2023-01-18T03:08:21.125Z,2.40
2023-01-18T03:10:58.900Z,2.40
2023-01-18T03:13:37.292Z,2.53
2023-01-18T03:16:11.040Z,2.00
2023-01-18T03:19:00.391Z,2.30
2023-01-18T03:21:37.364Z,2.33
2023-01-18T03:24:07.356Z,2.17
2023-01-18T03:26:39.496Z,2.63
2023-01-18T03:29:25.702Z,2.47
2023-01-18T03:32:15.862Z,2.43
2023-01-18T03:34:51.221Z,2.33
2023-01-18T03:37:23.534Z,2.20
2023-01-18T03:39:54.537Z,2.33
2023-01-18T03:42:25.781Z,2.50
2023-01-18T03:44:58.670Z,2.23
2023-01-18T03:47:27.992Z,2.33
2023-01-18T03:49:55.992Z,2.27
2023-01-18T03:52:27.015Z,2.50
2023-01-18T03:55:01.296Z,2.20
2023-01-18T03:57:35.811Z,2.30
2023-01-18T04:00:06.689Z,1.90
2023-01-18T04:02:36.179Z,2.53
2023-01-18T04:05:05.166Z,2.30
2023-01-18T04:07:34.155Z,2.67
2023-01-18T04:10:02.426Z,2.50
2023-01-18T04:12:31.467Z,2.67
2023-01-18T04:14:59.622Z,2.90
2023-01-18T04:17:27.781Z,2.67
2023-01-18T04:19:57.114Z,2.50
2023-01-18T04:22:25.033Z,3.33
2023-01-18T04:24:52.917Z,2.87
2023-01-18T04:27:22.351Z,3.37
2023-01-18T04:29:51.464Z,2.83
2023-01-18T04:32:19.325Z,3.00
2023-01-18T04:34:47.239Z,3.20
2023-01-18T04:37:16.414Z,3.40
2023-01-18T04:39:44.317Z,3.40
2023-01-18T04:42:12.303Z,3.60
2023-01-18T04:44:40.229Z,3.40
2023-01-18T04:47:08.053Z,3.40
2023-01-18T04:49:35.932Z,2.97
2023-01-18T04:52:03.790Z,3.30
2023-01-18T04:54:32.996Z,3.10
2023-01-18T04:57:00.882Z,3.17
2023-01-18T04:59:29.333Z,3.17
2023-01-18T05:01:57.412Z,2.83
2023-01-18T05:04:25.279Z,3.40
2023-01-18T05:06:53.196Z,2.90
2023-01-18T05:09:21.168Z,2.77
2023-01-18T05:11:50.378Z,2.97
2023-01-18T05:14:18.483Z,2.70
2023-01-18T05:16:46.359Z,2.90
2023-01-18T05:19:14.249Z,3.00
2023-01-18T05:21:42.292Z,2.90
2023-01-18T05:24:10.294Z,3.13
2023-01-18T05:26:38.159Z,2.93
2023-01-18T05:29:07.452Z,2.97
2023-01-18T05:31:35.416Z,3.03
2023-01-18T05:34:03.378Z,2.90
2023-01-18T05:36:31.228Z,3.00
2023-01-18T05:38:59.119Z,2.60
2023-01-18T05:41:27.059Z,2.93
2023-01-18T05:43:54.919Z,3.03
2023-01-18T05:46:24.183Z,2.60
2023-01-18T05:48:52.065Z,3.20
2023-01-18T05:51:19.957Z,2.93
2023-01-18T05:53:47.955Z,2.80
2023-01-18T05:56:15.847Z,3.10
2023-01-18T05:58:43.791Z,2.87
2023-01-18T06:01:11.758Z,2.23
2023-01-18T06:03:41.604Z,3.33
2023-01-18T06:06:09.699Z,2.70
2023-01-18T06:08:37.643Z,3.00
2023-01-18T06:11:06.390Z,3.73
2023-01-18T06:13:35.348Z,3.00
2023-01-18T06:16:03.995Z,2.80
2023-01-18T06:18:33.752Z,2.80
2023-01-18T06:21:04.122Z,2.80
2023-01-18T06:23:32.781Z,2.93
2023-01-18T06:26:00.763Z,3.13
2023-01-18T06:28:30.622Z,3.03
2023-01-18T06:30:59.058Z,3.23
2023-01-18T06:33:27.019Z,3.00
2023-01-18T06:35:54.985Z,2.80
2023-01-18T06:38:24.206Z,3.00
2023-01-18T06:40:52.138Z,3.67
2023-01-18T06:43:20.057Z,3.30
2023-01-18T06:45:53.669Z,3.27
2023-01-18T06:48:22.113Z,3.57
2023-01-18T06:50:50.015Z,2.80
2023-01-18T06:53:17.892Z,3.17
2023-01-18T06:55:53.971Z,3.20
2023-01-18T06:58:21.924Z,3.17
2023-01-18T07:00:49.783Z,3.10
2023-01-18T07:03:17.800Z,2.87
2023-01-18T07:05:46.712Z,2.93
2023-01-18T07:08:14.593Z,2.60
2023-01-18T07:10:42.494Z,2.97
2023-01-18T07:13:11.710Z,2.77
2023-01-18T07:15:39.683Z,3.13
2023-01-18T07:18:07.771Z,2.63
2023-01-18T07:20:35.791Z,3.50
2023-01-18T07:23:04.875Z,3.03
2023-01-18T07:25:32.842Z,3.73
2023-01-18T07:28:00.726Z,3.03
2023-01-18T07:30:29.937Z,3.17
2023-01-18T07:32:58.045Z,3.23
2023-01-18T07:35:27.417Z,3.30
2023-01-18T07:37:55.287Z,3.27
2023-01-18T07:40:23.496Z,2.70
2023-01-18T07:42:58.200Z,3.03
2023-01-18T07:45:26.433Z,3.20
2023-01-18T07:47:55.745Z,3.03
2023-01-18T07:50:23.650Z,3.27
2023-01-18T07:52:51.448Z,3.50
2023-01-18T07:55:21.081Z,3.93
2023-01-18T07:57:49.097Z,3.83
2023-01-18T08:00:17.464Z,3.47
2023-01-18T08:02:45.428Z,3.70
2023-01-18T08:05:14.792Z,3.50
2023-01-18T08:07:43.070Z,4.43
2023-01-18T08:10:11.596Z,3.47
2023-01-18T08:12:39.475Z,4.33
2023-01-18T08:15:08.519Z,4.00
2023-01-18T08:17:37.666Z,3.40
2023-01-18T08:20:05.989Z,3.13
2023-01-18T08:22:35.223Z,2.97
2023-01-18T08:25:03.361Z,3.10
2023-01-18T08:27:31.311Z,3.40
2023-01-18T08:29:59.245Z,3.40
2023-01-18T08:32:27.206Z,3.77
2023-01-18T08:34:56.090Z,3.20
2023-01-18T08:37:24.674Z,3.00
2023-01-18T08:39:54.008Z,4.63
2023-01-18T08:42:21.848Z,3.83
2023-01-18T08:44:49.797Z,3.20
2023-01-18T08:47:18.000Z,3.70
2023-01-18T08:49:46.540Z,3.10
2023-01-18T08:52:15.292Z,2.97
2023-01-18T08:54:43.177Z,2.80
2023-01-18T08:57:12.371Z,3.00
2023-01-18T08:59:40.211Z,3.60
2023-01-18T09:02:09.868Z,3.03
2023-01-18T09:04:37.822Z,2.97
2023-01-18T09:07:05.747Z,2.60
2023-01-18T09:09:33.599Z,3.10
2023-01-18T09:12:01.427Z,3.70
2023-01-18T09:14:30.635Z,3.30
2023-01-18T09:16:58.506Z,2.57
2023-01-18T09:19:26.357Z,3.40
2023-01-18T09:21:54.203Z,3.00
2023-01-18T09:24:22.229Z,3.13
2023-01-18T09:26:52.117Z,2.93
2023-01-18T09:29:20.429Z,3.20
2023-01-18T09:31:50.359Z,3.10
2023-01-18T09:34:20.259Z,2.47
2023-01-18T09:36:51.121Z,3.43
2023-01-18T09:39:19.521Z,3.07
2023-01-18T09:41:52.515Z,2.70
2023-01-18T09:44:25.421Z,2.90
2023-01-18T09:46:58.750Z,2.50
2023-01-18T09:49:33.913Z,2.77
2023-01-18T09:52:19.355Z,2.70
2023-01-18T09:54:56.004Z,3.50
2023-01-18T09:57:37.844Z,3.37
2023-01-18T10:00:15.779Z,3.70
2023-01-18T10:02:47.943Z,3.47
2023-01-18T10:05:18.763Z,3.53
2023-01-18T10:08:02.209Z,3.90
2023-01-18T10:10:34.972Z,3.40
2023-01-18T10:13:21.965Z,3.63
2023-01-18T10:15:50.881Z,3.47
2023-01-18T10:18:20.872Z,3.13
2023-01-18T10:20:55.263Z,3.20
2023-01-18T10:23:31.309Z,2.83
2023-01-18T10:26:03.956Z,3.27
2023-01-18T10:28:45.235Z,2.60
2023-01-18T10:31:24.780Z,2.57
2023-01-18T10:33:56.948Z,2.23
2023-01-18T10:36:32.308Z,2.23
2023-01-18T10:39:04.248Z,2.60
2023-01-18T10:41:38.372Z,2.80
2023-01-18T10:44:06.706Z,2.10
2023-01-18T10:46:34.579Z,2.53
2023-01-18T10:49:04.412Z,2.80
2023-01-18T10:51:35.046Z,2.50
2023-01-18T10:54:23.286Z,2.57
2023-01-18T10:57:01.603Z,2.20
2023-01-18T10:59:37.279Z,2.17
2023-01-18T11:02:06.046Z,2.10
2023-01-18T11:04:35.624Z,2.40
2023-01-18T11:07:05.334Z,1.90
2023-01-18T11:09:42.576Z,2.40
2023-01-18T11:12:37.361Z,2.50
2023-01-18T11:15:26.405Z,2.20
2023-01-18T11:18:12.029Z,2.47
2023-01-18T11:20:51.575Z,2.60
2023-01-18T11:23:25.374Z,2.30
2023-01-18T11:25:58.699Z,2.00
2023-01-18T11:28:30.575Z,2.47
2023-01-18T11:31:00.793Z,2.20
2023-01-18T11:33:30.944Z,2.50
2023-01-18T11:36:01.684Z,2.20
2023-01-18T11:38:33.230Z,2.20
2023-01-18T11:41:14.227Z,2.30
2023-01-18T11:43:54.875Z,1.90
2023-01-18T11:46:32.031Z,2.03
2023-01-18T11:49:08.339Z,2.03
2023-01-18T11:51:45.576Z,2.10
2023-01-18T11:54:26.463Z,2.73
2023-01-18T11:56:56.855Z,2.20
2023-01-18T11:59:30.954Z,2.30
2023-01-18T12:02:26.850Z,2.10
2023-01-18T12:05:16.518Z,2.03
2023-01-18T12:07:55.396Z,2.00
2023-01-18T12:10:24.880Z,2.10
2023-01-18T12:13:07.863Z,1.83
2023-01-18T12:15:53.242Z,2.27
2023-01-18T12:18:39.204Z,2.20
2023-01-18T12:21:11.836Z,2.23
2023-01-18T12:24:19.017Z,2.43
2023-01-18T12:26:56.604Z,2.70
2023-01-18T12:29:57.899Z,2.80
2023-01-18T12:32:49.691Z,2.90
2023-01-18T12:35:53.838Z,2.70
2023-01-18T12:38:24.117Z,2.90
2023-01-18T12:41:20.097Z,2.50
2023-01-18T12:44:03.006Z,2.30
2023-01-18T12:46:35.163Z,2.23
2023-01-18T12:49:06.491Z,2.50
2023-01-18T12:51:38.230Z,2.60
2023-01-18T12:54:15.532Z,2.57
2023-01-18T12:56:46.417Z,2.63
2023-01-18T12:59:21.187Z,3.10
2023-01-18T13:01:53.985Z,3.10
2023-01-18T13:04:27.049Z,3.00
2023-01-18T13:07:00.542Z,3.67
2023-01-18T13:09:34.174Z,3.00
2023-01-18T13:12:03.683Z,3.10
2023-01-18T13:14:37.833Z,3.43
2023-01-18T13:17:12.558Z,3.07
2023-01-18T13:19:44.081Z,2.87
2023-01-18T13:22:23.992Z,2.80
2023-01-18T13:25:08.810Z,2.47
2023-01-18T13:27:37.824Z,2.60
2023-01-18T13:30:19.233Z,2.83
2023-01-18T13:32:49.141Z,2.50
2023-01-18T13:35:21.817Z,2.60
2023-01-18T13:37:55.821Z,2.37
2023-01-18T13:40:35.661Z,2.47
2023-01-18T13:43:05.687Z,2.33
2023-01-18T13:46:03.022Z,2.13
2023-01-18T13:48:50.946Z,2.03
2023-01-18T13:51:57.357Z,2.13
2023-01-18T13:55:04.132Z,2.03
2023-01-18T13:57:34.375Z,1.73
2023-01-18T14:00:02.980Z,1.70
2023-01-18T14:02:41.757Z,2.27
2023-01-18T14:05:19.900Z,1.80
2023-01-18T14:07:51.442Z,2.07
2023-01-18T14:10:26.836Z,1.80
2023-01-18T14:12:56.982Z,2.00
2023-01-18T14:15:29.066Z,1.80
2023-01-18T14:17:59.594Z,1.80
2023-01-18T14:20:49.755Z,1.50
2023-01-18T14:23:56.224Z,1.27
2023-01-18T14:26:29.660Z,0.90
2023-01-18T14:29:01.534Z,1.13
2023-01-18T14:31:32.583Z,1.40
2023-01-18T14:34:38.047Z,1.50
2023-01-18T14:37:26.194Z,1.57
2023-01-18T14:40:14.615Z,1.60
2023-01-18T14:42:48.232Z,1.67
2023-01-18T14:45:23.120Z,1.90
2023-01-18T14:47:51.060Z,1.27
2023-01-18T14:50:23.624Z,1.53
2023-01-18T14:52:53.393Z,1.80
2023-01-18T14:55:26.998Z,1.70
2023-01-18T14:58:03.516Z,1.57
2023-01-18T15:00:31.752Z,1.63
2023-01-18T15:03:02.883Z,1.20
2023-01-18T15:05:32.505Z,1.57
2023-01-18T15:08:00.963Z,1.43
2023-01-18T15:10:29.256Z,1.43
2023-01-18T15:13:00.153Z,0.90
2023-01-18T15:15:31.493Z,1.43
2023-01-18T15:18:10.343Z,1.80
2023-01-18T15:20:54.962Z,1.40
2023-01-18T15:23:23.727Z,1.33
2023-01-18T15:25:53.401Z,1.20
2023-01-18T15:28:24.434Z,1.23
2023-01-18T15:30:54.685Z,1.40
2023-01-18T15:33:24.719Z,1.50
2023-01-18T15:35:58.222Z,1.73
2023-01-18T15:38:26.454Z,1.40
2023-01-18T15:41:00.471Z,1.67
2023-01-18T15:43:32.696Z,1.50
2023-01-18T15:46:01.442Z,1.40
2023-01-18T15:48:37.203Z,1.30
2023-01-18T15:51:10.963Z,1.70
2023-01-18T15:53:45.745Z,1.83
2023-01-18T15:56:18.629Z,1.50
2023-01-18T15:58:49.971Z,1.70
2023-01-18T16:01:20.834Z,1.60
2023-01-18T16:03:58.779Z,1.53
2023-01-18T16:06:33.921Z,1.77
2023-01-18T16:09:10.619Z,4.90
2023-01-18T16:11:46.367Z,1.60
2023-01-18T16:14:24.801Z,1.80
2023-01-18T16:16:54.183Z,1.37
2023-01-18T16:19:28.386Z,2.97
2023-01-18T16:22:00.492Z,1.10
2023-01-18T16:24:33.354Z,1.13
2023-01-18T16:27:10.335Z,2.17
2023-01-18T16:29:44.915Z,1.50
2023-01-18T16:32:34.226Z,1.20
2023-01-18T16:35:11.777Z,1.23
2023-01-18T16:37:44.307Z,1.27
2023-01-18T16:40:14.889Z,1.40
2023-01-18T16:42:58.497Z,1.40
2023-01-18T16:45:27.195Z,1.50
2023-01-18T16:47:55.147Z,1.50
2023-01-18T16:50:23.546Z,1.30
2023-01-18T16:52:52.867Z,1.40
2023-01-18T16:55:20.942Z,1.40
2023-01-18T16:57:51.436Z,1.40
2023-01-18T17:00:21.991Z,1.93
2023-01-18T17:02:50.112Z,1.70
2023-01-18T17:05:18.382Z,1.20
2023-01-18T17:07:46.416Z,1.60
2023-01-18T17:10:21.852Z,1.73
2023-01-18T17:12:49.747Z,1.20
2023-01-18T17:15:19.934Z,1.33
2023-01-18T17:17:48.135Z,0.90
2023-01-18T17:20:19.677Z,1.27
2023-01-18T17:22:47.763Z,1.10
2023-01-18T17:25:16.405Z,1.10
2023-01-18T17:27:46.034Z,1.30
2023-01-18T17:30:17.108Z,1.30
2023-01-18T17:32:46.821Z,1.10
2023-01-18T17:35:15.471Z,1.20
2023-01-18T17:37:43.440Z,0.90
2023-01-18T17:40:22.604Z,1.20
2023-01-18T17:42:54.113Z,1.23
2023-01-18T17:45:22.206Z,1.57
2023-01-18T17:47:52.484Z,1.40
2023-01-18T17:50:24.887Z,1.20
2023-01-18T17:52:54.097Z,1.10
2023-01-18T17:55:27.487Z,1.67
2023-01-18T17:57:59.967Z,1.23
2023-01-18T18:00:28.021Z,1.70
2023-01-18T18:02:57.323Z,1.87
2023-01-18T18:05:25.574Z,1.20
2023-01-18T18:07:53.461Z,1.43
2023-01-18T18:10:21.629Z,1.70
2023-01-18T18:12:49.670Z,1.40
2023-01-18T18:15:22.134Z,1.60
2023-01-18T18:17:50.395Z,1.37
2023-01-18T18:20:19.675Z,1.70
2023-01-18T18:22:48.643Z,1.23
2023-01-18T18:25:16.749Z,1.57
2023-01-18T18:27:46.780Z,1.30
2023-01-18T18:30:16.685Z,1.60
2023-01-18T18:32:46.569Z,1.40
2023-01-18T18:35:24.952Z,1.60
2023-01-18T18:37:55.406Z,1.40
2023-01-18T18:40:23.395Z,1.67
2023-01-18T18:43:07.551Z,1.70
2023-01-18T18:45:35.881Z,2.00
2023-01-18T18:48:05.826Z,1.67
2023-01-18T18:50:34.151Z,1.63
2023-01-18T18:53:02.700Z,1.63
2023-01-18T18:55:30.864Z,2.00
2023-01-18T18:57:58.758Z,2.00
2023-01-18T19:00:27.255Z,1.90
2023-01-18T19:02:59.102Z,2.10
2023-01-18T19:05:29.311Z,1.60
2023-01-18T19:07:57.401Z,2.10
2023-01-18T19:10:27.457Z,1.80
2023-01-18T19:12:56.006Z,2.10
2023-01-18T19:15:24.523Z,2.40
2023-01-18T19:17:53.195Z,2.20
2023-01-18T19:20:21.941Z,2.47
2023-01-18T19:22:52.037Z,2.27
2023-01-18T19:25:20.550Z,1.50
2023-01-18T19:27:48.499Z,1.57
2023-01-18T19:30:19.905Z,0.93
2023-01-18T19:32:49.221Z,1.03
2023-01-18T19:35:17.781Z,1.13
2023-01-18T19:37:46.415Z,0.70
2023-01-18T19:40:16.902Z,1.30
2023-01-18T19:42:47.169Z,1.10
2023-01-18T19:45:23.173Z,0.67
2023-01-18T19:47:56.379Z,1.00
2023-01-18T19:50:24.864Z,1.10
2023-01-18T19:52:52.862Z,1.40
2023-01-18T19:55:22.750Z,1.50
2023-01-18T19:57:52.216Z,1.03
2023-01-18T20:00:21.104Z,1.30
2023-01-18T20:02:49.162Z,1.33
2023-01-18T20:05:17.185Z,1.50
2023-01-18T20:07:45.140Z,1.40
2023-01-18T20:10:13.349Z,1.63
2023-01-18T20:12:42.601Z,1.40
2023-01-18T20:15:10.880Z,1.77
2023-01-18T20:17:39.382Z,1.33
2023-01-18T20:20:08.219Z,1.37
2023-01-18T20:22:36.197Z,1.53
2023-01-18T20:25:04.268Z,1.50
2023-01-18T20:27:32.157Z,1.77
2023-01-18T20:30:01.361Z,2.20
2023-01-18T20:32:29.315Z,2.50
2023-01-18T20:34:57.259Z,2.70
2023-01-18T20:37:25.135Z,2.43
2023-01-18T20:39:53.018Z,2.40
2023-01-18T20:42:20.904Z,2.40
2023-01-18T20:44:53.561Z,1.80
2023-01-18T20:47:22.994Z,2.40
2023-01-18T20:49:51.357Z,1.90
2023-01-18T20:52:19.611Z,1.90
2023-01-18T20:54:47.626Z,1.87
2023-01-18T20:57:15.633Z,1.67
2023-01-18T20:59:44.179Z,1.47
2023-01-18T21:02:12.644Z,2.00
2023-01-18T21:04:42.346Z,2.20
2023-01-18T21:07:10.187Z,1.53
2023-01-18T21:09:38.047Z,1.47
2023-01-18T21:12:06.140Z,1.23
2023-01-18T21:14:34.072Z,1.47
2023-01-18T21:17:01.906Z,1.40
2023-01-18T21:19:29.830Z,1.50
2023-01-18T21:21:59.106Z,1.63
2023-01-18T21:24:27.060Z,1.37
2023-01-18T21:26:55.074Z,1.27
2023-01-18T21:29:22.987Z,1.10
2023-01-18T21:31:50.882Z,1.17
2023-01-18T21:34:19.032Z,1.13
2023-01-18T21:36:47.045Z,1.20
2023-01-18T21:39:24.794Z,0.90
2023-01-18T21:42:10.395Z,0.80
2023-01-18T21:44:55.821Z,0.67
2023-01-18T21:47:23.860Z,1.27
2023-01-18T21:50:17.498Z,0.70
2023-01-18T21:53:03.244Z,0.57
2023-01-18T21:55:32.594Z,0.40
2023-01-18T21:58:17.996Z,0.30
2023-01-18T22:00:46.010Z,0.30
2023-01-18T22:03:15.313Z,0.70
2023-01-18T22:05:43.247Z,0.50
2023-01-18T22:08:11.172Z,0.30
2023-01-18T22:10:40.414Z,0.33
2023-01-18T22:13:08.362Z,0.70
2023-01-18T22:15:36.327Z,0.40
2023-01-18T22:18:04.379Z,0.70
2023-01-18T22:20:32.341Z,0.80
2023-01-18T22:23:00.294Z,0.67
2023-01-18T22:25:28.189Z,0.73
2023-01-18T22:27:57.724Z,1.00
2023-01-18T22:30:25.911Z,0.67
2023-01-18T22:32:53.813Z,0.37
2023-01-18T22:35:21.801Z,0.73
2023-01-18T22:37:49.688Z,0.80
2023-01-18T22:40:17.823Z,0.67
2023-01-18T22:42:45.705Z,0.63
2023-01-18T22:45:15.088Z,0.30
2023-01-18T22:47:43.055Z,0.67
2023-01-18T22:50:12.269Z,1.10
2023-01-18T22:52:40.202Z,0.60
2023-01-18T22:55:08.955Z,0.60
2023-01-18T22:57:36.959Z,0.80
2023-01-18T23:00:06.931Z,0.77
2023-01-18T23:02:36.210Z,0.50
2023-01-18T23:05:04.580Z,0.50
2023-01-18T23:07:32.460Z,0.40
2023-01-18T23:10:00.357Z,0.70
2023-01-18T23:12:28.300Z,0.47
2023-01-18T23:15:21.903Z,0.43
2023-01-18T23:17:51.342Z,0.60
2023-01-18T23:20:19.902Z,0.20
2023-01-18T23:22:47.922Z,0.33
2023-01-18T23:25:16.305Z,0.47
2023-01-18T23:27:44.303Z,0.50
2023-01-18T23:30:13.985Z,0.70
2023-01-18T23:32:42.256Z,0.40
2023-01-18T23:35:11.893Z,0.50
2023-01-18T23:37:39.964Z,0.60
2023-01-18T23:40:27.318Z,0.50
2023-01-18T23:43:13.091Z,0.50
2023-01-18T23:45:58.491Z,0.57
2023-01-18T23:48:43.883Z,0.50
2023-01-18T23:51:30.777Z,0.50
2023-01-18T23:54:15.946Z,0.30
2023-01-18T23:56:44.376Z,0.37
2023-01-18T23:59:13.802Z,0.50
